sensor_id;sensor_type;location;lat;lon;timestamp;temperature;humidity
6018;DHT22;3037;51.068;13.780;2023-02-08T00:00:08;-4.40;99.90
6018;DHT22;3037;51.068;13.780;2023-02-08T00:02:34;-4.60;99.90
6018;DHT22;3037;51.068;13.780;2023-02-08T00:04:59;-4.50;99.90
6018;DHT22;3037;51.068;13.780;2023-02-08T00:07:25;-4.40;99.90
6018;DHT22;3037;51.068;13.780;2023-02-08T00:09:50;-4.30;99.90
6018;DHT22;3037;51.068;13.780;2023-02-08T00:12:16;-4.50;99.90
6018;DHT22;3037;51.068;13.780;2023-02-08T00:14:41;-4.30;99.90
6018;DHT22;3037;51.068;13.780;2023-02-08T00:17:07;-4.20;99.90
6018;DHT22;3037;51.068;13.780;2023-02-08T00:19:32;-4.20;99.90
6018;DHT22;3037;51.068;13.780;2023-02-08T00:21:58;-4.20;99.90
6018;DHT22;3037;51.068;13.780;2023-02-08T00:24:23;-4.40;99.90
6018;DHT22;3037;51.068;13.780;2023-02-08T00:26:48;-4.40;99.90
6018;DHT22;3037;51.068;13.780;2023-02-08T00:29:14;-4.40;99.90
6018;DHT22;3037;51.068;13.780;2023-02-08T00:31:39;-4.40;99.90
6018;DHT22;3037;51.068;13.780;2023-02-08T00:34:05;-4.40;99.90
6018;DHT22;3037;51.068;13.780;2023-02-08T00:36:30;-4.40;99.90
6018;DHT22;3037;51.068;13.780;2023-02-08T00:38:56;-4.40;99.90
6018;DHT22;3037;51.068;13.780;2023-02-08T00:41:21;-4.50;99.90
6018;DHT22;3037;51.068;13.780;2023-02-08T00:43:47;-4.50;99.90
6018;DHT22;3037;51.068;13.780;2023-02-08T00:46:13;-4.60;99.90
6018;DHT22;3037;51.068;13.780;2023-02-08T00:48:38;-4.70;99.90
6018;DHT22;3037;51.068;13.780;2023-02-08T00:51:10;-4.70;99.90
6018;DHT22;3037;51.068;13.780;2023-02-08T00:53:39;-4.70;99.90
6018;DHT22;3037;51.068;13.780;2023-02-08T00:56:07;-4.70;99.90
6018;DHT22;3037;51.068;13.780;2023-02-08T00:58:32;-4.80;99.90
6018;DHT22;3037;51.068;13.780;2023-02-08T01:01:00;-4.70;99.90
6018;DHT22;3037;51.068;13.780;2023-02-08T01:03:26;-4.70;99.90
6018;DHT22;3037;51.068;13.780;2023-02-08T01:05:52;-4.50;99.90
6018;DHT22;3037;51.068;13.780;2023-02-08T01:08:18;-4.50;99.90
6018;DHT22;3037;51.068;13.780;2023-02-08T01:10:45;-4.50;99.90
6018;DHT22;3037;51.068;13.780;2023-02-08T01:13:11;-4.70;99.90
6018;DHT22;3037;51.068;13.780;2023-02-08T01:15:37;-4.80;99.90
6018;DHT22;3037;51.068;13.780;2023-02-08T01:18:03;-4.90;99.90
6018;DHT22;3037;51.068;13.780;2023-02-08T01:20:29;-4.90;99.90
6018;DHT22;3037;51.068;13.780;2023-02-08T01:22:55;-4.90;99.90
6018;DHT22;3037;51.068;13.780;2023-02-08T01:25:21;-4.60;99.90
6018;DHT22;3037;51.068;13.780;2023-02-08T01:27:46;-4.70;99.90
6018;DHT22;3037;51.068;13.780;2023-02-08T01:30:12;-4.80;99.90
6018;DHT22;3037;51.068;13.780;2023-02-08T01:32:38;-4.90;99.90
6018;DHT22;3037;51.068;13.780;2023-02-08T01:35:03;-4.90;99.90
6018;DHT22;3037;51.068;13.780;2023-02-08T01:37:29;-4.70;99.90
6018;DHT22;3037;51.068;13.780;2023-02-08T01:39:54;-4.70;99.90
6018;DHT22;3037;51.068;13.780;2023-02-08T01:42:20;-4.80;99.90
6018;DHT22;3037;51.068;13.780;2023-02-08T01:45:39;-4.90;99.90
6018;DHT22;3037;51.068;13.780;2023-02-08T01:48:14;-4.90;99.90
6018;DHT22;3037;51.068;13.780;2023-02-08T01:50:52;-4.80;99.90
6018;DHT22;3037;51.068;13.780;2023-02-08T01:53:20;-4.70;99.90
6018;DHT22;3037;51.068;13.780;2023-02-08T01:55:49;-4.90;99.90
6018;DHT22;3037;51.068;13.780;2023-02-08T01:58:17;-4.90;99.90
6018;DHT22;3037;51.068;13.780;2023-02-08T02:00:44;-4.90;99.90
6018;DHT22;3037;51.068;13.780;2023-02-08T02:03:10;-4.90;99.90
6018;DHT22;3037;51.068;13.780;2023-02-08T02:05:41;-5.00;99.90
6018;DHT22;3037;51.068;13.780;2023-02-08T02:08:08;-5.00;99.90
6018;DHT22;3037;51.068;13.780;2023-02-08T02:10:35;-4.80;99.90
6018;DHT22;3037;51.068;13.780;2023-02-08T02:13:06;-5.00;99.90
6018;DHT22;3037;51.068;13.780;2023-02-08T02:15:32;-4.80;99.90
6018;DHT22;3037;51.068;13.780;2023-02-08T02:17:58;-5.10;99.90
6018;DHT22;3037;51.068;13.780;2023-02-08T02:23:20;-5.00;99.90
6018;DHT22;3037;51.068;13.780;2023-02-08T02:31:29;-5.00;99.90
6018;DHT22;3037;51.068;13.780;2023-02-08T02:34:14;-5.10;99.90
6018;DHT22;3037;51.068;13.780;2023-02-08T02:37:02;-5.00;99.90
6018;DHT22;3037;51.068;13.780;2023-02-08T02:42:28;-5.10;99.90
6018;DHT22;3037;51.068;13.780;2023-02-08T02:45:34;-5.20;99.90
6018;DHT22;3037;51.068;13.780;2023-02-08T02:48:27;-5.20;99.90
6018;DHT22;3037;51.068;13.780;2023-02-08T02:51:02;-5.10;99.90
6018;DHT22;3037;51.068;13.780;2023-02-08T02:53:54;-4.90;99.90
6018;DHT22;3037;51.068;13.780;2023-02-08T02:56:28;-5.10;99.90
6018;DHT22;3037;51.068;13.780;2023-02-08T02:58:57;-5.10;99.90
6018;DHT22;3037;51.068;13.780;2023-02-08T03:01:25;-5.00;99.90
6018;DHT22;3037;51.068;13.780;2023-02-08T03:03:52;-5.10;99.90
6018;DHT22;3037;51.068;13.780;2023-02-08T03:09:10;-5.10;99.90
6018;DHT22;3037;51.068;13.780;2023-02-08T03:11:47;-5.20;99.90
6018;DHT22;3037;51.068;13.780;2023-02-08T03:14:19;-5.30;99.90
6018;DHT22;3037;51.068;13.780;2023-02-08T03:17:13;-5.30;99.90
6018;DHT22;3037;51.068;13.780;2023-02-08T03:22:34;-5.10;99.90
6018;DHT22;3037;51.068;13.780;2023-02-08T03:25:11;-5.10;99.90
6018;DHT22;3037;51.068;13.780;2023-02-08T03:30:31;-5.40;99.90
6018;DHT22;3037;51.068;13.780;2023-02-08T03:33:10;-5.30;99.90
6018;DHT22;3037;51.068;13.780;2023-02-08T03:35:42;-5.30;99.90
6018;DHT22;3037;51.068;13.780;2023-02-08T03:38:14;-5.30;99.90
6018;DHT22;3037;51.068;13.780;2023-02-08T03:40:45;-5.50;99.90
6018;DHT22;3037;51.068;13.780;2023-02-08T03:43:23;-5.50;99.90
6018;DHT22;3037;51.068;13.780;2023-02-08T03:46:00;-5.40;99.90
6018;DHT22;3037;51.068;13.780;2023-02-08T03:48:29;-5.40;99.90
6018;DHT22;3037;51.068;13.780;2023-02-08T03:50:56;-5.40;99.90
6018;DHT22;3037;51.068;13.780;2023-02-08T03:53:23;-5.40;99.90
6018;DHT22;3037;51.068;13.780;2023-02-08T03:55:56;-5.40;99.90
6018;DHT22;3037;51.068;13.780;2023-02-08T03:58:38;-5.30;99.90
6018;DHT22;3037;51.068;13.780;2023-02-08T04:01:18;-5.30;99.90
6018;DHT22;3037;51.068;13.780;2023-02-08T04:03:48;-5.60;99.90
6018;DHT22;3037;51.068;13.780;2023-02-08T04:06:15;-5.40;99.90
6018;DHT22;3037;51.068;13.780;2023-02-08T04:08:41;-5.70;99.90
6018;DHT22;3037;51.068;13.780;2023-02-08T04:11:07;-5.80;99.90
6018;DHT22;3037;51.068;13.780;2023-02-08T04:13:32;-5.70;99.90
6018;DHT22;3037;51.068;13.780;2023-02-08T04:15:58;-5.70;99.90
6018;DHT22;3037;51.068;13.780;2023-02-08T04:18:23;-5.40;99.90
6018;DHT22;3037;51.068;13.780;2023-02-08T04:20:49;-5.50;99.90
6018;DHT22;3037;51.068;13.780;2023-02-08T04:23:14;-5.70;99.90
6018;DHT22;3037;51.068;13.780;2023-02-08T04:25:40;-5.60;99.90
6018;DHT22;3037;51.068;13.780;2023-02-08T04:28:05;-5.70;99.90
6018;DHT22;3037;51.068;13.780;2023-02-08T04:30:31;-5.80;99.90
6018;DHT22;3037;51.068;13.780;2023-02-08T04:32:56;-5.80;99.90
6018;DHT22;3037;51.068;13.780;2023-02-08T04:35:24;-5.60;99.90
6018;DHT22;3037;51.068;13.780;2023-02-08T04:37:49;-5.60;99.90
6018;DHT22;3037;51.068;13.780;2023-02-08T04:40:15;-5.60;99.90
6018;DHT22;3037;51.068;13.780;2023-02-08T04:42:41;-5.70;99.90
6018;DHT22;3037;51.068;13.780;2023-02-08T04:45:07;-5.40;99.90
6018;DHT22;3037;51.068;13.780;2023-02-08T04:47:32;-5.30;99.90
6018;DHT22;3037;51.068;13.780;2023-02-08T04:49:58;-5.30;99.90
6018;DHT22;3037;51.068;13.780;2023-02-08T04:52:23;-5.50;99.90
6018;DHT22;3037;51.068;13.780;2023-02-08T04:54:49;-5.50;99.90
6018;DHT22;3037;51.068;13.780;2023-02-08T04:57:14;-5.50;99.90
6018;DHT22;3037;51.068;13.780;2023-02-08T04:59:40;-5.40;99.90
6018;DHT22;3037;51.068;13.780;2023-02-08T05:02:05;-5.50;99.90
6018;DHT22;3037;51.068;13.780;2023-02-08T05:04:31;-5.30;99.90
6018;DHT22;3037;51.068;13.780;2023-02-08T05:06:57;-5.50;99.90
6018;DHT22;3037;51.068;13.780;2023-02-08T05:09:23;-5.50;99.90
6018;DHT22;3037;51.068;13.780;2023-02-08T05:11:48;-5.50;99.90
6018;DHT22;3037;51.068;13.780;2023-02-08T05:14:14;-5.60;99.90
6018;DHT22;3037;51.068;13.780;2023-02-08T05:16:39;-5.70;99.90
6018;DHT22;3037;51.068;13.780;2023-02-08T05:19:05;-5.70;99.90
6018;DHT22;3037;51.068;13.780;2023-02-08T05:21:30;-5.60;99.90
6018;DHT22;3037;51.068;13.780;2023-02-08T05:23:56;-5.60;99.90
6018;DHT22;3037;51.068;13.780;2023-02-08T05:26:21;-5.50;99.90
6018;DHT22;3037;51.068;13.780;2023-02-08T05:28:47;-5.50;99.90
6018;DHT22;3037;51.068;13.780;2023-02-08T05:31:20;-5.60;99.90
6018;DHT22;3037;51.068;13.780;2023-02-08T05:33:48;-5.50;99.90
6018;DHT22;3037;51.068;13.780;2023-02-08T05:36:13;-5.40;99.90
6018;DHT22;3037;51.068;13.780;2023-02-08T05:38:39;-5.40;99.90
6018;DHT22;3037;51.068;13.780;2023-02-08T05:41:04;-5.40;99.90
6018;DHT22;3037;51.068;13.780;2023-02-08T05:43:30;-5.50;99.90
6018;DHT22;3037;51.068;13.780;2023-02-08T05:45:55;-5.60;99.90
6018;DHT22;3037;51.068;13.780;2023-02-08T05:48:21;-5.70;99.90
6018;DHT22;3037;51.068;13.780;2023-02-08T05:50:47;-5.70;99.90
6018;DHT22;3037;51.068;13.780;2023-02-08T05:53:12;-5.70;99.90
6018;DHT22;3037;51.068;13.780;2023-02-08T05:55:37;-5.60;99.90
6018;DHT22;3037;51.068;13.780;2023-02-08T05:58:03;-5.50;99.90
6018;DHT22;3037;51.068;13.780;2023-02-08T06:00:29;-5.40;99.90
6018;DHT22;3037;51.068;13.780;2023-02-08T06:02:55;-5.40;99.90
6018;DHT22;3037;51.068;13.780;2023-02-08T06:05:21;-5.50;99.90
6018;DHT22;3037;51.068;13.780;2023-02-08T06:07:46;-5.60;99.90
6018;DHT22;3037;51.068;13.780;2023-02-08T06:10:12;-5.60;99.90
6018;DHT22;3037;51.068;13.780;2023-02-08T06:12:37;-5.40;99.90
6018;DHT22;3037;51.068;13.780;2023-02-08T06:15:03;-5.30;99.90
6018;DHT22;3037;51.068;13.780;2023-02-08T06:17:29;-5.00;99.90
6018;DHT22;3037;51.068;13.780;2023-02-08T06:19:54;-4.90;99.90
6018;DHT22;3037;51.068;13.780;2023-02-08T06:22:20;-4.70;99.90
6018;DHT22;3037;51.068;13.780;2023-02-08T06:24:45;-4.80;99.90
6018;DHT22;3037;51.068;13.780;2023-02-08T06:27:12;-4.50;99.90
6018;DHT22;3037;51.068;13.780;2023-02-08T06:29:37;-4.50;99.90
6018;DHT22;3037;51.068;13.780;2023-02-08T06:32:03;-4.40;99.90
6018;DHT22;3037;51.068;13.780;2023-02-08T06:34:28;-4.40;99.90
6018;DHT22;3037;51.068;13.780;2023-02-08T06:36:54;-4.30;99.90
6018;DHT22;3037;51.068;13.780;2023-02-08T06:39:19;-4.10;99.90
6018;DHT22;3037;51.068;13.780;2023-02-08T06:41:45;-4.00;99.90
6018;DHT22;3037;51.068;13.780;2023-02-08T06:44:10;-3.90;99.90
6018;DHT22;3037;51.068;13.780;2023-02-08T06:46:36;-3.90;99.90
6018;DHT22;3037;51.068;13.780;2023-02-08T06:49:01;-3.80;99.90
6018;DHT22;3037;51.068;13.780;2023-02-08T06:51:27;-3.60;99.90
6018;DHT22;3037;51.068;13.780;2023-02-08T06:53:52;-3.70;99.90
6018;DHT22;3037;51.068;13.780;2023-02-08T06:56:18;-3.50;99.90
6018;DHT22;3037;51.068;13.780;2023-02-08T06:58:44;-3.50;99.90
6018;DHT22;3037;51.068;13.780;2023-02-08T07:01:13;-3.40;99.90
6018;DHT22;3037;51.068;13.780;2023-02-08T07:03:39;-3.50;99.90
6018;DHT22;3037;51.068;13.780;2023-02-08T07:06:04;-3.30;99.90
6018;DHT22;3037;51.068;13.780;2023-02-08T07:08:31;-3.20;99.90
6018;DHT22;3037;51.068;13.780;2023-02-08T07:10:57;-3.20;99.90
6018;DHT22;3037;51.068;13.780;2023-02-08T07:13:23;-3.10;99.90
6018;DHT22;3037;51.068;13.780;2023-02-08T07:15:48;-3.10;99.90
6018;DHT22;3037;51.068;13.780;2023-02-08T07:18:13;-3.00;99.90
6018;DHT22;3037;51.068;13.780;2023-02-08T07:20:39;-3.10;99.90
6018;DHT22;3037;51.068;13.780;2023-02-08T07:23:04;-3.10;99.90
6018;DHT22;3037;51.068;13.780;2023-02-08T07:25:30;-2.80;99.90
6018;DHT22;3037;51.068;13.780;2023-02-08T07:27:56;-2.80;99.90
6018;DHT22;3037;51.068;13.780;2023-02-08T07:30:21;-2.90;99.90
6018;DHT22;3037;51.068;13.780;2023-02-08T07:32:46;-2.80;99.90
6018;DHT22;3037;51.068;13.780;2023-02-08T07:35:12;-1.70;99.90
6018;DHT22;3037;51.068;13.780;2023-02-08T07:37:38;-2.10;99.90
6018;DHT22;3037;51.068;13.780;2023-02-08T07:40:03;-1.90;99.90
6018;DHT22;3037;51.068;13.780;2023-02-08T07:42:29;-2.10;99.90
6018;DHT22;3037;51.068;13.780;2023-02-08T07:44:54;-2.10;99.90
6018;DHT22;3037;51.068;13.780;2023-02-08T07:47:20;-1.90;99.90
6018;DHT22;3037;51.068;13.780;2023-02-08T07:49:45;0.60;83.80
6018;DHT22;3037;51.068;13.780;2023-02-08T07:52:11;2.70;36.20
6018;DHT22;3037;51.068;13.780;2023-02-08T07:54:36;3.90;15.50
6018;DHT22;3037;51.068;13.780;2023-02-08T07:57:02;4.00;2.50
6018;DHT22;3037;51.068;13.780;2023-02-08T07:59:27;4.70;1.00
6018;DHT22;3037;51.068;13.780;2023-02-08T08:01:53;5.10;1.00
6018;DHT22;3037;51.068;13.780;2023-02-08T08:04:18;5.70;1.00
6018;DHT22;3037;51.068;13.780;2023-02-08T08:06:46;5.00;1.00
6018;DHT22;3037;51.068;13.780;2023-02-08T08:09:11;5.10;1.00
6018;DHT22;3037;51.068;13.780;2023-02-08T08:11:39;5.00;1.00
6018;DHT22;3037;51.068;13.780;2023-02-08T08:14:05;6.00;1.00
6018;DHT22;3037;51.068;13.780;2023-02-08T08:16:30;5.80;1.00
6018;DHT22;3037;51.068;13.780;2023-02-08T08:18:56;6.60;1.00
6018;DHT22;3037;51.068;13.780;2023-02-08T08:21:21;6.50;1.00
6018;DHT22;3037;51.068;13.780;2023-02-08T08:23:47;5.60;1.00
6018;DHT22;3037;51.068;13.780;2023-02-08T08:26:17;6.10;1.00
6018;DHT22;3037;51.068;13.780;2023-02-08T08:28:44;6.60;1.00
6018;DHT22;3037;51.068;13.780;2023-02-08T08:31:16;6.00;1.00
6018;DHT22;3037;51.068;13.780;2023-02-08T08:33:42;6.40;1.00
6018;DHT22;3037;51.068;13.780;2023-02-08T08:36:09;5.40;1.00
6018;DHT22;3037;51.068;13.780;2023-02-08T08:38:35;6.10;1.00
6018;DHT22;3037;51.068;13.780;2023-02-08T08:41:07;6.90;1.00
6018;DHT22;3037;51.068;13.780;2023-02-08T08:43:32;7.20;1.00
6018;DHT22;3037;51.068;13.780;2023-02-08T08:45:58;7.00;1.00
6018;DHT22;3037;51.068;13.780;2023-02-08T08:48:23;7.50;1.00
6018;DHT22;3037;51.068;13.780;2023-02-08T08:50:49;6.90;1.00
6018;DHT22;3037;51.068;13.780;2023-02-08T08:53:14;7.60;1.00
6018;DHT22;3037;51.068;13.780;2023-02-08T08:55:40;9.30;1.00
6018;DHT22;3037;51.068;13.780;2023-02-08T08:58:06;9.00;1.00
6018;DHT22;3037;51.068;13.780;2023-02-08T09:00:31;8.40;1.00
6018;DHT22;3037;51.068;13.780;2023-02-08T09:02:57;7.70;1.00
6018;DHT22;3037;51.068;13.780;2023-02-08T09:05:22;7.40;1.00
6018;DHT22;3037;51.068;13.780;2023-02-08T09:07:48;7.80;1.00
6018;DHT22;3037;51.068;13.780;2023-02-08T09:10:13;9.00;1.00
6018;DHT22;3037;51.068;13.780;2023-02-08T09:12:39;7.80;1.00
6018;DHT22;3037;51.068;13.780;2023-02-08T09:15:04;8.50;1.00
6018;DHT22;3037;51.068;13.780;2023-02-08T09:17:30;8.60;1.00
6018;DHT22;3037;51.068;13.780;2023-02-08T09:19:56;8.20;1.00
6018;DHT22;3037;51.068;13.780;2023-02-08T09:22:21;8.20;1.00
6018;DHT22;3037;51.068;13.780;2023-02-08T09:24:47;9.30;1.00
6018;DHT22;3037;51.068;13.780;2023-02-08T09:27:12;10.10;1.00
6018;DHT22;3037;51.068;13.780;2023-02-08T09:29:39;9.50;1.00
6018;DHT22;3037;51.068;13.780;2023-02-08T09:32:04;8.60;1.00
6018;DHT22;3037;51.068;13.780;2023-02-08T09:34:30;9.90;1.00
6018;DHT22;3037;51.068;13.780;2023-02-08T09:36:55;9.00;1.00
6018;DHT22;3037;51.068;13.780;2023-02-08T09:39:23;10.70;1.00
6018;DHT22;3037;51.068;13.780;2023-02-08T09:42:08;9.70;1.00
6018;DHT22;3037;51.068;13.780;2023-02-08T09:47:29;8.90;1.00
6018;DHT22;3037;51.068;13.780;2023-02-08T09:52:38;7.50;1.00
6018;DHT22;3037;51.068;13.780;2023-02-08T09:55:48;8.50;1.00
6018;DHT22;3037;51.068;13.780;2023-02-08T10:01:04;9.40;1.00
6018;DHT22;3037;51.068;13.780;2023-02-08T10:03:41;9.60;1.00
6018;DHT22;3037;51.068;13.780;2023-02-08T10:06:13;8.20;1.00
6018;DHT22;3037;51.068;13.780;2023-02-08T10:08:40;9.10;1.00
6018;DHT22;3037;51.068;13.780;2023-02-08T10:11:23;7.80;1.00
6018;DHT22;3037;51.068;13.780;2023-02-08T10:17:05;7.00;1.00
6018;DHT22;3037;51.068;13.780;2023-02-08T10:19:57;9.20;1.00
6018;DHT22;3037;51.068;13.780;2023-02-08T10:22:39;9.20;1.00
6018;DHT22;3037;51.068;13.780;2023-02-08T10:25:28;9.00;1.00
6018;DHT22;3037;51.068;13.780;2023-02-08T10:28:22;10.50;1.00
6018;DHT22;3037;51.068;13.780;2023-02-08T10:30:52;8.60;1.00
6018;DHT22;3037;51.068;13.780;2023-02-08T10:33:26;8.10;1.00
6018;DHT22;3037;51.068;13.780;2023-02-08T10:35:56;6.90;1.00
6018;DHT22;3037;51.068;13.780;2023-02-08T10:38:28;7.90;1.00
6018;DHT22;3037;51.068;13.780;2023-02-08T10:41:01;6.90;1.00
6018;DHT22;3037;51.068;13.780;2023-02-08T10:46:23;8.90;1.00
6018;DHT22;3037;51.068;13.780;2023-02-08T10:51:34;8.00;1.00
6018;DHT22;3037;51.068;13.780;2023-02-08T10:54:00;7.40;1.00
6018;DHT22;3037;51.068;13.780;2023-02-08T10:58:57;9.10;1.00
6018;DHT22;3037;51.068;13.780;2023-02-08T11:01:25;11.50;1.00
6018;DHT22;3037;51.068;13.780;2023-02-08T11:04:10;11.40;1.00
6018;DHT22;3037;51.068;13.780;2023-02-08T11:06:37;8.30;1.00
6018;DHT22;3037;51.068;13.780;2023-02-08T11:09:03;9.00;1.00
6018;DHT22;3037;51.068;13.780;2023-02-08T11:11:37;8.70;1.00
6018;DHT22;3037;51.068;13.780;2023-02-08T11:14:18;8.60;1.00
6018;DHT22;3037;51.068;13.780;2023-02-08T11:16:55;7.30;1.00
6018;DHT22;3037;51.068;13.780;2023-02-08T11:19:31;7.10;1.00
6018;DHT22;3037;51.068;13.780;2023-02-08T11:21:57;7.70;1.00
6018;DHT22;3037;51.068;13.780;2023-02-08T11:24:30;8.00;1.00
6018;DHT22;3037;51.068;13.780;2023-02-08T11:27:00;7.30;1.00
6018;DHT22;3037;51.068;13.780;2023-02-08T11:29:28;5.80;1.00
6018;DHT22;3037;51.068;13.780;2023-02-08T11:34:30;5.70;1.00
6018;DHT22;3037;51.068;13.780;2023-02-08T11:37:01;5.40;1.00
6018;DHT22;3037;51.068;13.780;2023-02-08T11:39:44;6.50;1.00
6018;DHT22;3037;51.068;13.780;2023-02-08T11:42:35;4.90;1.00
6018;DHT22;3037;51.068;13.780;2023-02-08T11:45:03;5.60;1.00
6018;DHT22;3037;51.068;13.780;2023-02-08T11:47:32;5.50;1.00
6018;DHT22;3037;51.068;13.780;2023-02-08T11:50:00;5.60;1.00
6018;DHT22;3037;51.068;13.780;2023-02-08T11:52:34;5.80;1.00
6018;DHT22;3037;51.068;13.780;2023-02-08T11:57:52;5.10;1.00
6018;DHT22;3037;51.068;13.780;2023-02-08T12:00:23;5.30;1.00
6018;DHT22;3037;51.068;13.780;2023-02-08T12:02:57;3.90;1.00
6018;DHT22;3037;51.068;13.780;2023-02-08T12:14:12;3.20;1.00
6018;DHT22;3037;51.068;13.780;2023-02-08T12:22:01;3.20;1.00
6018;DHT22;3037;51.068;13.780;2023-02-08T12:24:49;2.90;1.00
6018;DHT22;3037;51.068;13.780;2023-02-08T12:29:55;3.80;1.00
6018;DHT22;3037;51.068;13.780;2023-02-08T12:32:50;4.00;1.00
6018;DHT22;3037;51.068;13.780;2023-02-08T12:50:20;3.20;1.00
6018;DHT22;3037;51.068;13.780;2023-02-08T12:52:54;3.10;1.00
6018;DHT22;3037;51.068;13.780;2023-02-08T12:55:28;2.60;1.00
6018;DHT22;3037;51.068;13.780;2023-02-08T12:58:03;2.90;1.00
6018;DHT22;3037;51.068;13.780;2023-02-08T13:00:35;3.00;1.00
6018;DHT22;3037;51.068;13.780;2023-02-08T13:03:29;2.90;1.00
6018;DHT22;3037;51.068;13.780;2023-02-08T13:06:00;2.80;1.00
6018;DHT22;3037;51.068;13.780;2023-02-08T13:08:47;2.80;1.00
6018;DHT22;3037;51.068;13.780;2023-02-08T13:13:41;2.60;1.00
6018;DHT22;3037;51.068;13.780;2023-02-08T13:16:41;2.60;1.00
6018;DHT22;3037;51.068;13.780;2023-02-08T13:19:20;2.90;1.00
6018;DHT22;3037;51.068;13.780;2023-02-08T13:21:51;2.80;1.00
6018;DHT22;3037;51.068;13.780;2023-02-08T13:24:26;2.70;1.00
6018;DHT22;3037;51.068;13.780;2023-02-08T13:26:53;2.70;1.00
6018;DHT22;3037;51.068;13.780;2023-02-08T13:29:19;3.20;1.00
6018;DHT22;3037;51.068;13.780;2023-02-08T13:31:50;2.90;1.00
6018;DHT22;3037;51.068;13.780;2023-02-08T13:36:51;3.00;1.00
6018;DHT22;3037;51.068;13.780;2023-02-08T13:39:42;3.10;1.00
6018;DHT22;3037;51.068;13.780;2023-02-08T13:42:29;3.30;1.00
6018;DHT22;3037;51.068;13.780;2023-02-08T13:44:56;3.10;1.00
6018;DHT22;3037;51.068;13.780;2023-02-08T13:47:36;3.10;1.00
6018;DHT22;3037;51.068;13.780;2023-02-08T13:50:58;3.00;1.00
6018;DHT22;3037;51.068;13.780;2023-02-08T13:54:03;3.20;1.00
6018;DHT22;3037;51.068;13.780;2023-02-08T13:56:11;3.20;1.00
6018;DHT22;3037;51.068;13.780;2023-02-08T14:03:42;3.50;1.00
6018;DHT22;3037;51.068;13.780;2023-02-08T14:06:24;2.80;1.00
6018;DHT22;3037;51.068;13.780;2023-02-08T14:11:56;2.80;1.00
6018;DHT22;3037;51.068;13.780;2023-02-08T14:14:31;2.90;1.00
6018;DHT22;3037;51.068;13.780;2023-02-08T14:17:27;2.70;1.00
6018;DHT22;3037;51.068;13.780;2023-02-08T14:20:03;2.40;1.00
6018;DHT22;3037;51.068;13.780;2023-02-08T14:22:37;2.60;1.00
6018;DHT22;3037;51.068;13.780;2023-02-08T14:25:16;2.70;1.00
6018;DHT22;3037;51.068;13.780;2023-02-08T14:28:03;2.30;1.00
6018;DHT22;3037;51.068;13.780;2023-02-08T14:30:36;2.60;1.00
6018;DHT22;3037;51.068;13.780;2023-02-08T14:35:33;2.50;1.00
6018;DHT22;3037;51.068;13.780;2023-02-08T14:40:50;2.40;1.00
6018;DHT22;3037;51.068;13.780;2023-02-08T14:45:50;2.30;1.00
6018;DHT22;3037;51.068;13.780;2023-02-08T14:53:48;2.30;1.00
6018;DHT22;3037;51.068;13.780;2023-02-08T15:01:50;2.30;1.00
6018;DHT22;3037;51.068;13.780;2023-02-08T15:04:18;2.20;1.00
6018;DHT22;3037;51.068;13.780;2023-02-08T15:07:00;2.00;1.00
6018;DHT22;3037;51.068;13.780;2023-02-08T15:09:30;2.20;1.00
6018;DHT22;3037;51.068;13.780;2023-02-08T15:12:23;2.20;1.00
6018;DHT22;3037;51.068;13.780;2023-02-08T15:14:52;2.40;1.00
6018;DHT22;3037;51.068;13.780;2023-02-08T15:17:29;2.10;1.00
6018;DHT22;3037;51.068;13.780;2023-02-08T15:19:56;1.80;1.00
6018;DHT22;3037;51.068;13.780;2023-02-08T15:24:58;2.10;1.00
6018;DHT22;3037;51.068;13.780;2023-02-08T15:27:28;2.00;1.00
6018;DHT22;3037;51.068;13.780;2023-02-08T15:29:55;1.60;1.00
6018;DHT22;3037;51.068;13.780;2023-02-08T15:32:22;1.60;1.00
6018;DHT22;3037;51.068;13.780;2023-02-08T15:34:56;1.60;1.00
6018;DHT22;3037;51.068;13.780;2023-02-08T15:37:23;1.40;1.00
6018;DHT22;3037;51.068;13.780;2023-02-08T15:39:54;1.30;1.00
6018;DHT22;3037;51.068;13.780;2023-02-08T15:42:23;1.20;2.30
6018;DHT22;3037;51.068;13.780;2023-02-08T15:44:49;1.00;7.70
6018;DHT22;3037;51.068;13.780;2023-02-08T15:47:25;1.10;9.30
6018;DHT22;3037;51.068;13.780;2023-02-08T15:49:52;1.00;11.00
6018;DHT22;3037;51.068;13.780;2023-02-08T15:52:22;1.10;11.10
6018;DHT22;3037;51.068;13.780;2023-02-08T15:54:49;1.00;13.20
6018;DHT22;3037;51.068;13.780;2023-02-08T15:57:41;1.00;13.80
6018;DHT22;3037;51.068;13.780;2023-02-08T16:00:15;1.00;13.90
6018;DHT22;3037;51.068;13.780;2023-02-08T16:02:43;0.90;16.60
6018;DHT22;3037;51.068;13.780;2023-02-08T16:05:20;1.00;15.80
6018;DHT22;3037;51.068;13.780;2023-02-08T16:07:46;0.80;18.90
6018;DHT22;3037;51.068;13.780;2023-02-08T16:10:28;0.60;20.40
6018;DHT22;3037;51.068;13.780;2023-02-08T16:12:58;0.60;24.70
6018;DHT22;3037;51.068;13.780;2023-02-08T16:18:30;0.70;23.30
6018;DHT22;3037;51.068;13.780;2023-02-08T16:21:01;0.60;25.60
6018;DHT22;3037;51.068;13.780;2023-02-08T16:23:29;0.60;27.20
6018;DHT22;3037;51.068;13.780;2023-02-08T16:25:55;0.60;28.20
6018;DHT22;3037;51.068;13.780;2023-02-08T16:28:29;0.50;29.50
6018;DHT22;3037;51.068;13.780;2023-02-08T16:31:00;0.50;31.90
6018;DHT22;3037;51.068;13.780;2023-02-08T16:33:27;0.40;32.60
6018;DHT22;3037;51.068;13.780;2023-02-08T16:35:53;0.40;34.40
6018;DHT22;3037;51.068;13.780;2023-02-08T16:38:27;0.40;34.80
6018;DHT22;3037;51.068;13.780;2023-02-08T16:40:55;0.10;40.50
6018;DHT22;3037;51.068;13.780;2023-02-08T16:43:28;0.00;46.40
6018;DHT22;3037;51.068;13.780;2023-02-08T16:48:41;0.30;44.50
6018;DHT22;3037;51.068;13.780;2023-02-08T16:51:14;0.10;44.80
6018;DHT22;3037;51.068;13.780;2023-02-08T16:53:41;0.20;45.50
6018;DHT22;3037;51.068;13.780;2023-02-08T16:56:08;0.30;44.60
6018;DHT22;3037;51.068;13.780;2023-02-08T16:58:34;0.20;43.70
6018;DHT22;3037;51.068;13.780;2023-02-08T17:00:59;0.20;46.10
6018;DHT22;3037;51.068;13.780;2023-02-08T17:03:25;-0.10;51.70
6018;DHT22;3037;51.068;13.780;2023-02-08T17:05:51;-0.30;56.00
6018;DHT22;3037;51.068;13.780;2023-02-08T17:08:19;-0.30;58.90
6018;DHT22;3037;51.068;13.780;2023-02-08T17:10:46;-0.30;58.60
6018;DHT22;3037;51.068;13.780;2023-02-08T17:13:16;-0.30;59.10
6018;DHT22;3037;51.068;13.780;2023-02-08T17:15:42;-0.30;56.80
6018;DHT22;3037;51.068;13.780;2023-02-08T17:18:09;-0.40;61.00
6018;DHT22;3037;51.068;13.780;2023-02-08T17:20:36;-0.40;61.80
6018;DHT22;3037;51.068;13.780;2023-02-08T17:23:02;-0.40;64.40
6018;DHT22;3037;51.068;13.780;2023-02-08T17:25:30;-0.40;64.10
6018;DHT22;3037;51.068;13.780;2023-02-08T17:28:07;-0.30;63.00
6018;DHT22;3037;51.068;13.780;2023-02-08T17:30:36;-0.30;63.00
6018;DHT22;3037;51.068;13.780;2023-02-08T17:33:02;-0.30;65.20
6018;DHT22;3037;51.068;13.780;2023-02-08T17:35:29;-0.50;65.40
6018;DHT22;3037;51.068;13.780;2023-02-08T17:37:56;-0.60;70.70
6018;DHT22;3037;51.068;13.780;2023-02-08T17:40:29;-0.40;68.30
6018;DHT22;3037;51.068;13.780;2023-02-08T17:42:57;-0.30;66.20
6018;DHT22;3037;51.068;13.780;2023-02-08T17:45:23;-0.40;68.80
6018;DHT22;3037;51.068;13.780;2023-02-08T17:47:48;-0.40;68.70
6018;DHT22;3037;51.068;13.780;2023-02-08T17:50:15;-0.60;73.20
6018;DHT22;3037;51.068;13.780;2023-02-08T17:52:41;-0.50;73.70
6018;DHT22;3037;51.068;13.780;2023-02-08T17:55:09;-0.50;73.50
6018;DHT22;3037;51.068;13.780;2023-02-08T17:57:37;-0.20;74.70
6018;DHT22;3037;51.068;13.780;2023-02-08T18:00:08;-0.30;72.80
6018;DHT22;3037;51.068;13.780;2023-02-08T18:02:35;-0.40;72.80
6018;DHT22;3037;51.068;13.780;2023-02-08T18:05:01;-0.30;70.50
6018;DHT22;3037;51.068;13.780;2023-02-08T18:07:26;-0.50;72.60
6018;DHT22;3037;51.068;13.780;2023-02-08T18:09:52;-0.60;73.30
6018;DHT22;3037;51.068;13.780;2023-02-08T18:12:18;-0.50;72.20